Ashley, Louisiana
Current Conditions -  °F | °C
As of 6:53 AM on Saturday 01 Nov 2014 (Local Time) from KTVR Reporting Station
Clear Clear  
Wind Chill:   Ceiling: Unl
Heat Index:   Visibility: 10mi
Dew Point: -3°   Wind: 13mph
Humidity: 60%   Direction: 10°N
Pressure: 30.38"   Gusts: NA
Location:  32.3599°N, 91.2529°W
Report Text: KTVR 011153Z AUTO 01011KT 10SM CLR 04/M03 A3038 RMK AO2 SLP294 T00391033 10067 20033 51013
Loading
Personal Weather Stations






























Interactive Weather Map
Tropical Storm Tracking
New forecast layout! Learn more

10-Day Weather Forecast

Advertisements
Track Severe Weather on mobile